Bemidji, Minnesota
Current Conditions -  °F | °C
As of 12:13 PM on Wednesday 28 Jan 2015 (Local Time) from KBJI Reporting Station
Haze Haze  
Wind Chill: 22°   Ceiling: 400
Heat Index: 31°   Visibility: 4mi
Dew Point: 29°   Wind: 12mph
Humidity: 94%   Direction: 180°S
Pressure: 29.78"   Gusts: NA
Location:  47.47°N, 94.88°W
Report Text: KBJI 281813Z AUTO 18010KT 4SM BR OVC004 M01/M01 A2978 RMK AO2 T10061014
Loading
Personal Weather Stations






























Interactive Weather Map New forecast layout! Learn more

10-Day Weather Forecast

Advertisements
Track Severe Weather on mobile